createdAt,value
2023-04-20T00:01:17.047Z,58.81
2023-04-20T00:03:45.687Z,58.92
2023-04-20T00:06:14.136Z,59.05
2023-04-20T00:08:42.510Z,59.13
2023-04-20T00:11:10.880Z,59.13
2023-04-20T00:13:39.089Z,59.22
2023-04-20T00:16:07.885Z,59.06
2023-04-20T00:18:36.361Z,59.23
2023-04-20T00:21:06.230Z,59.15
2023-04-20T00:23:34.526Z,58.93
2023-04-20T00:26:02.684Z,58.92
2023-04-20T00:28:31.477Z,58.86
2023-04-20T00:30:59.761Z,58.86
2023-04-20T00:33:27.992Z,59.01
2023-04-20T00:35:56.714Z,59.06
2023-04-20T00:38:25.424Z,59.03
2023-04-20T00:40:55.522Z,59.01
2023-04-20T00:43:24.896Z,59.08
2023-04-20T00:45:53.946Z,59.00
2023-04-20T00:48:22.356Z,58.95
2023-04-20T00:50:50.558Z,58.96
2023-04-20T00:53:18.791Z,59.12
2023-04-20T00:55:46.931Z,59.16
2023-04-20T00:58:14.987Z,59.31
2023-04-20T01:00:44.119Z,59.40
2023-04-20T01:03:12.480Z,59.41
2023-04-20T01:05:41.017Z,59.45
2023-04-20T01:08:09.437Z,59.57
2023-04-20T01:10:37.591Z,59.69
2023-04-20T01:13:08.360Z,59.69
2023-04-20T01:15:36.724Z,59.91
2023-04-20T01:18:06.913Z,60.26
2023-04-20T01:20:35.053Z,60.39
2023-04-20T01:23:03.590Z,60.57
2023-04-20T01:25:32.473Z,60.72
2023-04-20T01:28:02.194Z,61.07
2023-04-20T01:30:31.283Z,61.31
2023-04-20T01:32:59.418Z,61.37
2023-04-20T01:35:28.502Z,61.73
2023-04-20T01:37:56.591Z,61.95
2023-04-20T01:40:26.210Z,62.19
2023-04-20T01:42:54.868Z,62.38
2023-04-20T01:45:24.091Z,62.73
2023-04-20T01:47:52.707Z,62.89
2023-04-20T01:50:21.048Z,63.17
2023-04-20T01:52:49.620Z,63.41
2023-04-20T01:55:20.115Z,63.49
2023-04-20T01:57:48.345Z,63.73
2023-04-20T02:00:17.477Z,63.99
2023-04-20T02:02:46.044Z,64.15
2023-04-20T02:05:14.632Z,64.37
2023-04-20T02:07:42.919Z,64.52
2023-04-20T02:10:11.501Z,64.55
2023-04-20T02:12:40.319Z,64.79
2023-04-20T02:15:11.824Z,64.90
2023-04-20T02:17:41.916Z,64.95
2023-04-20T02:20:11.003Z,65.06
2023-04-20T02:22:39.646Z,65.18
2023-04-20T02:25:09.911Z,65.25
2023-04-20T02:27:38.642Z,65.37
2023-04-20T02:30:08.404Z,65.44
2023-04-20T02:32:37.353Z,65.54
2023-04-20T02:35:06.391Z,65.61
2023-04-20T02:37:34.571Z,65.70
2023-04-20T02:40:03.001Z,65.82
2023-04-20T02:42:31.989Z,65.87
2023-04-20T02:45:01.498Z,65.82
2023-04-20T02:47:30.558Z,65.87
2023-04-20T02:49:58.725Z,65.86
2023-04-20T02:52:27.027Z,65.95
2023-04-20T02:54:57.474Z,65.89
2023-04-20T02:57:25.752Z,65.87
2023-04-20T02:59:55.053Z,65.87
2023-04-20T03:02:28.203Z,65.88
2023-04-20T03:04:56.967Z,65.82
2023-04-20T03:07:26.314Z,65.76
2023-04-20T03:09:54.794Z,65.78
2023-04-20T03:12:23.305Z,65.74
2023-04-20T03:15:06.628Z,65.76
2023-04-20T03:17:57.677Z,65.73
2023-04-20T03:20:26.622Z,65.81
2023-04-20T03:22:55.600Z,65.86
2023-04-20T03:25:25.850Z,65.91
2023-04-20T03:27:59.881Z,65.91
2023-04-20T03:30:28.681Z,66.05
2023-04-20T03:33:02.165Z,66.12
2023-04-20T03:35:31.236Z,66.23
2023-04-20T03:37:59.694Z,66.40
2023-04-20T03:40:28.354Z,66.38
2023-04-20T03:42:56.600Z,66.36
2023-04-20T03:45:24.623Z,66.50
2023-04-20T03:47:52.752Z,66.44
2023-04-20T03:50:22.522Z,66.49
2023-04-20T03:52:51.006Z,66.51
2023-04-20T03:55:19.688Z,66.45
2023-04-20T03:57:52.512Z,66.48
2023-04-20T04:00:21.064Z,66.49
2023-04-20T04:02:50.035Z,66.47
2023-04-20T04:05:36.486Z,66.52
2023-04-20T04:08:05.122Z,66.59
2023-04-20T04:10:33.765Z,66.62
2023-04-20T04:13:02.157Z,66.67
2023-04-20T04:15:30.622Z,66.71
2023-04-20T04:18:02.887Z,66.85
2023-04-20T04:20:33.147Z,66.92
2023-04-20T04:23:02.070Z,67.03
2023-04-20T04:25:40.504Z,67.19
2023-04-20T04:28:08.890Z,67.31
2023-04-20T04:30:39.089Z,67.54
2023-04-20T04:33:10.415Z,67.59
2023-04-20T04:35:41.733Z,67.69
2023-04-20T04:38:13.005Z,67.76
2023-04-20T04:40:45.945Z,67.87
2023-04-20T04:43:24.632Z,68.03
2023-04-20T04:46:13.249Z,68.17
2023-04-20T04:48:42.699Z,68.26
2023-04-20T04:51:11.218Z,68.42
2023-04-20T04:53:39.386Z,68.51
2023-04-20T04:56:07.759Z,68.62
2023-04-20T04:58:36.216Z,68.68
2023-04-20T05:01:04.417Z,68.82
2023-04-20T05:03:32.749Z,68.86
2023-04-20T05:06:01.002Z,68.94
2023-04-20T05:08:29.617Z,68.95
2023-04-20T05:10:58.432Z,69.00
2023-04-20T05:13:26.617Z,69.03
2023-04-20T05:15:54.829Z,69.13
2023-04-20T05:18:23.044Z,69.10
2023-04-20T05:20:51.496Z,69.23
2023-04-20T05:23:20.613Z,69.24
2023-04-20T05:25:49.015Z,69.18
2023-04-20T05:28:18.725Z,69.24
2023-04-20T05:30:55.724Z,69.23
2023-04-20T05:33:25.009Z,69.25
2023-04-20T05:35:57.446Z,69.20
2023-04-20T05:38:26.152Z,69.24
2023-04-20T05:40:54.578Z,69.19
2023-04-20T05:43:23.147Z,69.21
2023-04-20T05:45:51.373Z,69.23
2023-04-20T05:48:20.163Z,69.15
2023-04-20T05:50:48.441Z,69.22
2023-04-20T05:53:16.832Z,69.14
2023-04-20T05:55:45.039Z,69.17
2023-04-20T05:58:13.242Z,69.14
2023-04-20T06:00:44.467Z,69.06
2023-04-20T06:03:16.432Z,69.15
2023-04-20T06:06:18.396Z,69.20
2023-04-20T06:08:47.246Z,69.21
2023-04-20T06:11:15.717Z,69.19
2023-04-20T06:13:43.877Z,69.17
2023-04-20T06:16:12.088Z,69.07
2023-04-20T06:18:43.662Z,69.24
2023-04-20T06:21:16.020Z,69.14
2023-04-20T06:23:49.896Z,69.24
2023-04-20T06:26:18.388Z,69.29
2023-04-20T06:28:48.728Z,69.25
2023-04-20T06:31:17.418Z,69.35
2023-04-20T06:33:45.890Z,69.42
2023-04-20T06:36:14.052Z,69.46
2023-04-20T06:38:42.201Z,69.59
2023-04-20T06:41:10.254Z,69.60
2023-04-20T06:43:38.723Z,69.53
2023-04-20T06:46:09.037Z,69.52
2023-04-20T06:48:38.410Z,69.60
2023-04-20T06:51:27.047Z,69.56
2023-04-20T06:53:56.259Z,69.58
2023-04-20T06:56:24.480Z,69.60
2023-04-20T06:58:52.459Z,69.70
2023-04-20T07:01:21.229Z,69.71
2023-04-20T07:03:50.429Z,69.69
2023-04-20T07:06:18.648Z,69.69
2023-04-20T07:08:46.945Z,69.74
2023-04-20T07:11:15.168Z,69.81
2023-04-20T07:13:43.480Z,69.86
2023-04-20T07:16:12.400Z,69.77
2023-04-20T07:18:41.315Z,69.74
2023-04-20T07:21:09.894Z,69.88
2023-04-20T07:23:38.959Z,69.80
2023-04-20T07:26:08.039Z,69.83
2023-04-20T07:28:42.362Z,69.77
2023-04-20T07:31:12.504Z,69.73
2023-04-20T07:33:41.147Z,69.73
2023-04-20T07:36:10.272Z,69.89
2023-04-20T07:38:40.490Z,69.81
2023-04-20T07:41:11.834Z,69.84
2023-04-20T07:43:41.846Z,69.85
2023-04-20T07:46:10.015Z,69.86
2023-04-20T07:48:39.304Z,69.96
2023-04-20T07:51:07.822Z,69.91
2023-04-20T07:53:36.193Z,69.88
2023-04-20T07:56:07.834Z,70.01
2023-04-20T07:58:39.077Z,69.89
2023-04-20T08:01:07.639Z,69.92
2023-04-20T08:03:36.596Z,70.22
2023-04-20T08:06:13.854Z,70.15
2023-04-20T08:08:45.726Z,70.15
2023-04-20T08:11:14.104Z,70.15
2023-04-20T08:13:42.989Z,70.13
2023-04-20T08:16:11.563Z,70.13
2023-04-20T08:18:40.972Z,70.15
2023-04-20T08:21:09.587Z,70.17
2023-04-20T08:23:37.642Z,70.22
2023-04-20T08:26:06.225Z,70.20
2023-04-20T08:28:34.716Z,70.30
2023-04-20T08:31:03.027Z,70.31
2023-04-20T08:33:32.303Z,70.27
2023-04-20T08:36:00.980Z,70.22
2023-04-20T08:38:34.204Z,70.32
2023-04-20T08:41:03.000Z,70.31
2023-04-20T08:43:32.129Z,70.29
2023-04-20T08:46:01.916Z,70.32
2023-04-20T08:48:37.084Z,70.30
2023-04-20T08:51:05.739Z,70.30
2023-04-20T08:53:34.162Z,70.29
2023-04-20T08:56:02.366Z,70.40
2023-04-20T08:58:34.337Z,70.39
2023-04-20T09:01:02.674Z,70.47
2023-04-20T09:03:33.396Z,70.28
2023-04-20T09:06:01.886Z,70.44
2023-04-20T09:08:37.650Z,70.57
2023-04-20T09:11:06.110Z,70.50
2023-04-20T09:13:35.304Z,70.48
2023-04-20T09:16:11.258Z,70.52
2023-04-20T09:18:43.938Z,70.62
2023-04-20T09:21:13.548Z,70.60
2023-04-20T09:23:41.801Z,70.65
2023-04-20T09:26:17.926Z,70.55
2023-04-20T09:28:46.485Z,70.53
2023-04-20T09:31:22.062Z,70.52
2023-04-20T09:34:01.588Z,70.54
2023-04-20T09:36:46.954Z,70.56
2023-04-20T09:39:21.038Z,70.63
2023-04-20T09:41:56.121Z,70.70
2023-04-20T09:44:24.883Z,70.71
2023-04-20T09:46:53.191Z,70.59
2023-04-20T09:49:21.790Z,70.68
2023-04-20T09:51:51.166Z,70.65
2023-04-20T09:54:19.843Z,70.72
2023-04-20T09:56:48.039Z,70.66
2023-04-20T09:59:17.396Z,70.60
2023-04-20T10:01:45.914Z,70.48
2023-04-20T10:04:15.079Z,70.65
2023-04-20T10:06:55.207Z,70.61
2023-04-20T10:09:28.495Z,70.55
2023-04-20T10:12:09.622Z,70.58
2023-04-20T10:14:37.774Z,70.56
2023-04-20T10:17:07.493Z,70.60
2023-04-20T10:19:45.455Z,70.56
2023-04-20T10:22:25.181Z,70.46
2023-04-20T10:24:53.368Z,70.33
2023-04-20T10:27:21.868Z,70.26
2023-04-20T10:29:50.048Z,70.22
2023-04-20T10:32:28.769Z,70.27
2023-04-20T10:35:04.816Z,70.24
2023-04-20T10:37:34.472Z,70.20
2023-04-20T10:40:07.396Z,70.26
2023-04-20T10:42:45.633Z,70.30
2023-04-20T10:45:13.982Z,70.33
2023-04-20T10:47:42.366Z,70.29
2023-04-20T10:50:12.342Z,70.32
2023-04-20T10:52:41.986Z,70.33
2023-04-20T10:55:26.166Z,70.27
2023-04-20T10:57:54.477Z,70.38
2023-04-20T11:00:25.086Z,70.32
2023-04-20T11:02:54.951Z,70.37
2023-04-20T11:05:24.990Z,70.42
2023-04-20T11:07:59.998Z,70.34
2023-04-20T11:10:38.984Z,70.45
2023-04-20T11:13:07.772Z,70.48
2023-04-20T11:15:36.352Z,70.40
2023-04-20T11:18:08.775Z,70.37
2023-04-20T11:20:37.122Z,70.40
2023-04-20T11:23:09.045Z,70.51
2023-04-20T11:25:54.811Z,70.68
2023-04-20T11:28:23.626Z,70.67
2023-04-20T11:30:53.712Z,70.58
2023-04-20T11:33:29.015Z,70.62
2023-04-20T11:35:57.802Z,70.72
2023-04-20T11:38:33.325Z,70.72
2023-04-20T11:41:04.847Z,70.76
2023-04-20T11:43:33.390Z,70.75
2023-04-20T11:46:03.075Z,70.73
2023-04-20T11:48:32.128Z,70.85
2023-04-20T11:51:00.406Z,70.79
2023-04-20T11:53:29.045Z,70.95
2023-04-20T11:55:57.251Z,70.94
2023-04-20T11:58:25.596Z,70.99
2023-04-20T12:00:53.875Z,70.88
2023-04-20T12:03:22.366Z,70.99
2023-04-20T12:05:50.742Z,70.95
2023-04-20T12:08:19.215Z,70.91
2023-04-20T12:10:47.486Z,71.01
2023-04-20T12:13:16.278Z,71.03
2023-04-20T12:15:44.331Z,70.92
2023-04-20T12:18:12.664Z,70.88
2023-04-20T12:20:40.983Z,70.76
2023-04-20T12:23:09.139Z,70.71
2023-04-20T12:25:37.763Z,70.61
2023-04-20T12:28:07.554Z,70.55
2023-04-20T12:30:36.264Z,70.33
2023-04-20T12:33:04.711Z,70.41
2023-04-20T12:35:33.607Z,70.19
2023-04-20T12:38:01.808Z,69.99
2023-04-20T12:40:30.028Z,69.86
2023-04-20T12:42:58.272Z,69.64
2023-04-20T12:45:26.943Z,69.59
2023-04-20T12:47:56.299Z,69.57
2023-04-20T12:50:27.463Z,69.45
2023-04-20T12:52:56.607Z,69.43
2023-04-20T12:55:29.209Z,69.46
2023-04-20T12:57:58.530Z,69.39
2023-04-20T13:00:26.959Z,69.32
2023-04-20T13:02:55.086Z,69.48
2023-04-20T13:05:23.283Z,69.55
2023-04-20T13:07:52.095Z,69.62
2023-04-20T13:10:20.393Z,69.63
2023-04-20T13:12:48.634Z,69.75
2023-04-20T13:15:31.886Z,69.67
2023-04-20T13:18:06.392Z,69.78
2023-04-20T13:20:34.555Z,69.82
2023-04-20T13:23:03.008Z,69.84
2023-04-20T13:25:35.148Z,69.87
2023-04-20T13:28:03.603Z,69.91
2023-04-20T13:30:32.095Z,69.98
2023-04-20T13:33:00.590Z,69.91
2023-04-20T13:35:29.078Z,69.86
2023-04-20T13:37:57.238Z,69.84
2023-04-20T13:40:26.196Z,69.79
2023-04-20T13:42:54.382Z,69.84
2023-04-20T13:45:22.701Z,69.79
2023-04-20T13:47:51.014Z,69.81
2023-04-20T13:50:19.219Z,69.89
2023-04-20T13:52:47.371Z,69.91
2023-04-20T13:55:15.873Z,69.95
2023-04-20T13:57:44.246Z,70.00
2023-04-20T14:00:13.831Z,69.99
2023-04-20T14:02:42.193Z,69.98
2023-04-20T14:05:10.814Z,69.88
2023-04-20T14:07:38.994Z,69.97
2023-04-20T14:17:46.790Z,69.87
2023-04-20T14:20:15.320Z,69.80
2023-04-20T14:22:43.984Z,69.81
2023-04-20T14:25:12.561Z,69.89
2023-04-20T14:27:40.869Z,69.77
2023-04-20T14:30:10.270Z,69.80
2023-04-20T14:32:38.829Z,69.83
2023-04-20T14:35:09.320Z,69.73
2023-04-20T14:37:37.694Z,69.78
2023-04-20T14:40:07.329Z,69.77
2023-04-20T14:42:35.579Z,69.75
2023-04-20T14:45:04.828Z,69.61
2023-04-20T14:47:33.466Z,69.76
2023-04-20T14:50:01.606Z,69.71
2023-04-20T14:52:29.849Z,69.75
2023-04-20T14:55:10.025Z,69.68
2023-04-20T14:57:38.223Z,69.61
2023-04-20T15:00:06.895Z,69.73
2023-04-20T15:02:36.185Z,69.58
2023-04-20T15:05:08.102Z,69.54
2023-04-20T15:07:38.336Z,69.51
2023-04-20T15:10:07.451Z,69.57
2023-04-20T15:12:35.649Z,69.47
2023-04-20T15:15:04.743Z,69.40
2023-04-20T15:17:33.609Z,69.23
2023-04-20T15:20:02.923Z,69.32
2023-04-20T15:22:31.418Z,69.35
2023-04-20T15:24:59.566Z,69.26
2023-04-20T15:27:27.925Z,69.18
2023-04-20T15:29:58.389Z,69.26
2023-04-20T15:32:26.631Z,69.22
2023-04-20T15:34:54.799Z,69.29
2023-04-20T15:37:22.805Z,69.33
2023-04-20T15:39:51.501Z,69.31
2023-04-20T15:42:19.698Z,69.18
2023-04-20T15:44:48.164Z,68.80
2023-04-20T15:47:16.316Z,68.65
2023-04-20T15:49:44.618Z,68.42
2023-04-20T15:52:12.982Z,68.33
2023-04-20T16:02:19.576Z,68.26
2023-04-20T16:04:48.165Z,68.45
2023-04-20T16:07:16.569Z,68.52
2023-04-20T16:09:44.697Z,68.58
2023-04-20T16:12:13.455Z,68.60
2023-04-20T16:14:41.705Z,68.85
2023-04-20T16:17:09.821Z,68.95
2023-04-20T16:19:38.054Z,68.84
2023-04-20T16:22:06.334Z,68.97
2023-04-20T16:24:35.061Z,69.01
2023-04-20T16:27:04.006Z,69.10
2023-04-20T16:29:32.065Z,69.05
2023-04-20T16:32:00.196Z,69.10
2023-04-20T16:34:28.431Z,69.16
2023-04-20T16:36:56.576Z,69.22
2023-04-20T16:39:24.701Z,69.23
2023-04-20T16:41:52.857Z,69.32
2023-04-20T16:44:21.309Z,69.43
2023-04-20T16:46:52.425Z,69.47
2023-04-20T16:49:20.646Z,69.53
2023-04-20T16:51:48.977Z,69.59
2023-04-20T16:54:17.495Z,69.67
2023-04-20T16:56:46.098Z,69.61
2023-04-20T16:59:14.099Z,69.71
2023-04-20T17:01:42.442Z,69.79
2023-04-20T17:04:11.375Z,69.81
2023-04-20T17:06:39.654Z,69.78
2023-04-20T17:09:08.107Z,69.65
2023-04-20T17:11:36.149Z,69.73
2023-04-20T17:14:04.269Z,69.56
2023-04-20T17:16:32.658Z,69.52
2023-04-20T17:19:00.886Z,69.53
2023-04-20T17:21:29.274Z,69.57
2023-04-20T17:23:57.443Z,69.65
2023-04-20T17:26:25.766Z,69.62
2023-04-20T17:28:53.998Z,69.57
2023-04-20T17:31:22.488Z,69.59
2023-04-20T17:33:50.767Z,69.56
2023-04-20T17:36:19.202Z,69.58
2023-04-20T17:38:47.409Z,69.60
2023-04-20T17:41:18.585Z,69.53
2023-04-20T17:43:50.530Z,69.56
2023-04-20T17:46:18.685Z,69.56
2023-04-20T17:48:47.008Z,69.52
2023-04-20T17:51:15.392Z,69.55
2023-04-20T17:53:43.636Z,69.43
2023-04-20T17:56:11.929Z,69.32
2023-04-20T17:58:40.178Z,69.37
2023-04-20T18:01:08.383Z,69.34
2023-04-20T18:03:37.244Z,69.18
2023-04-20T18:06:06.719Z,69.08
2023-04-20T18:08:37.845Z,69.17
2023-04-20T18:11:07.723Z,69.06
2023-04-20T18:13:36.518Z,69.06
2023-04-20T18:16:07.429Z,68.95
2023-04-20T18:18:36.018Z,69.03
2023-04-20T18:21:04.516Z,69.00
2023-04-20T18:23:32.878Z,68.87
2023-04-20T18:26:00.900Z,68.90
2023-04-20T18:28:29.432Z,68.82
2023-04-20T18:30:59.007Z,68.92
2023-04-20T18:33:27.564Z,68.82
2023-04-20T18:35:55.674Z,68.79
2023-04-20T18:38:24.639Z,68.70
2023-04-20T18:40:52.671Z,68.48
2023-04-20T18:43:21.311Z,68.51
2023-04-20T18:45:49.349Z,68.57
2023-04-20T18:48:17.891Z,68.49
2023-04-20T18:50:47.433Z,68.47
2023-04-20T18:53:16.839Z,68.44
2023-04-20T18:55:44.979Z,68.42
2023-04-20T18:58:13.137Z,68.50
2023-04-20T19:00:41.391Z,68.47
2023-04-20T19:03:10.898Z,68.59
2023-04-20T19:05:39.223Z,68.62
2023-04-20T19:08:07.483Z,68.60
2023-04-20T19:10:35.974Z,68.66
2023-04-20T19:13:04.379Z,68.84
2023-04-20T19:15:32.714Z,68.90
2023-04-20T19:18:00.880Z,68.91
2023-04-20T19:20:29.230Z,69.01
2023-04-20T19:22:57.214Z,69.10
2023-04-20T19:25:25.434Z,69.17
2023-04-20T19:27:53.445Z,69.16
2023-04-20T19:30:21.781Z,69.32
2023-04-20T19:32:50.094Z,69.37
2023-04-20T19:35:18.293Z,69.45
2023-04-20T19:37:46.638Z,69.46
2023-04-20T19:40:14.971Z,69.57
2023-04-20T19:42:43.570Z,69.73
2023-04-20T19:45:12.111Z,69.75
2023-04-20T19:47:41.796Z,69.81
2023-04-20T19:50:11.249Z,69.87
2023-04-20T19:52:39.731Z,69.88
2023-04-20T19:55:08.633Z,70.02
2023-04-20T19:57:36.760Z,70.02
2023-04-20T20:00:06.058Z,70.08
2023-04-20T20:02:41.980Z,70.06
2023-04-20T20:05:11.889Z,70.18
2023-04-20T20:07:40.454Z,70.19
2023-04-20T20:10:08.950Z,70.23
2023-04-20T20:12:37.729Z,70.14
2023-04-20T20:15:08.011Z,70.19
2023-04-20T20:17:37.130Z,70.19
2023-04-20T20:20:07.350Z,70.24
2023-04-20T20:22:35.882Z,70.39
2023-04-20T20:25:04.710Z,70.37
2023-04-20T20:27:33.652Z,70.27
2023-04-20T20:30:01.915Z,70.31
2023-04-20T20:32:31.129Z,70.54
2023-04-20T20:34:59.580Z,70.44
2023-04-20T20:37:28.677Z,70.44
2023-04-20T20:39:57.088Z,70.51
2023-04-20T20:42:25.949Z,70.50
2023-04-20T20:44:54.559Z,70.52
2023-04-20T20:47:23.483Z,70.44
2023-04-20T20:49:51.593Z,70.44
2023-04-20T20:52:20.137Z,70.48
2023-04-20T20:54:48.562Z,70.50
2023-04-20T20:57:16.844Z,70.47
2023-04-20T20:59:44.933Z,70.39
2023-04-20T21:02:13.649Z,70.40
2023-04-20T21:04:42.092Z,70.34
2023-04-20T21:07:10.447Z,70.24
2023-04-20T21:09:38.769Z,70.18
2023-04-20T21:12:07.747Z,70.17
2023-04-20T21:14:37.745Z,70.23
2023-04-20T21:17:05.887Z,70.24
2023-04-20T21:19:35.135Z,70.11
2023-04-20T21:22:03.711Z,70.05
2023-04-20T21:24:32.090Z,70.02
2023-04-20T21:27:00.662Z,70.00
2023-04-20T21:29:29.859Z,69.88
2023-04-20T21:31:58.043Z,69.94
2023-04-20T21:34:26.372Z,69.88
2023-04-20T21:36:54.893Z,69.73
2023-04-20T21:39:23.086Z,69.77
2023-04-20T21:41:51.549Z,69.70
2023-04-20T21:44:20.311Z,69.64
2023-04-20T21:46:48.414Z,69.62
2023-04-20T21:49:16.970Z,69.48
2023-04-20T21:51:45.783Z,69.47
2023-04-20T21:54:14.181Z,69.50
2023-04-20T21:56:42.594Z,69.34
2023-04-20T21:59:11.295Z,69.33
2023-04-20T22:01:40.272Z,69.49
2023-04-20T22:04:12.525Z,69.31
2023-04-20T22:06:41.394Z,69.24
2023-04-20T22:09:09.656Z,69.18
2023-04-20T22:11:38.016Z,69.37
2023-04-20T22:14:06.346Z,69.44
2023-04-20T22:16:34.620Z,69.39
2023-04-20T22:19:03.604Z,69.14
2023-04-20T22:21:33.102Z,68.99
2023-04-20T22:24:01.579Z,68.85
2023-04-20T22:26:30.048Z,68.74
2023-04-20T22:28:58.426Z,68.57
2023-04-20T22:31:26.709Z,68.53
2023-04-20T22:33:55.022Z,68.76
2023-04-20T22:36:23.266Z,68.73
2023-04-20T22:46:25.958Z,68.59
2023-04-20T22:48:54.517Z,68.40
2023-04-20T22:51:22.757Z,68.30
2023-04-20T22:53:50.959Z,68.20
2023-04-20T22:56:19.212Z,68.19
2023-04-20T22:58:47.277Z,68.05
2023-04-20T23:01:15.490Z,68.23
2023-04-20T23:03:43.697Z,68.16
2023-04-20T23:06:12.359Z,68.17
2023-04-20T23:08:41.609Z,68.12
2023-04-20T23:11:09.773Z,68.18
2023-04-20T23:13:37.949Z,68.11
2023-04-20T23:16:06.790Z,68.09
2023-04-20T23:18:35.121Z,68.15
2023-04-20T23:21:03.397Z,68.08
2023-04-20T23:23:32.266Z,68.26
2023-04-20T23:26:00.551Z,68.32
2023-04-20T23:28:28.615Z,68.14
2023-04-20T23:30:56.890Z,68.21
2023-04-20T23:33:25.153Z,68.40
2023-04-20T23:35:53.502Z,68.28
2023-04-20T23:38:21.873Z,68.42
2023-04-20T23:40:50.134Z,68.49
2023-04-20T23:43:18.502Z,68.41
2023-04-20T23:45:47.109Z,68.48
2023-04-20T23:48:15.579Z,68.70
2023-04-20T23:50:44.015Z,68.66
2023-04-20T23:53:12.458Z,68.66
2023-04-20T23:55:40.700Z,68.74
2023-04-20T23:58:08.818Z,68.59
